createdAt,value
2019-03-03T00:00:18.940Z,7.40
2019-03-03T00:02:47.429Z,6.55
2019-03-03T00:05:15.873Z,7.72
2019-03-03T00:07:44.433Z,7.37
2019-03-03T00:10:13.636Z,8.88
2019-03-03T00:12:42.115Z,7.75
2019-03-03T00:15:12.025Z,8.30
2019-03-03T00:17:40.495Z,12.63
2019-03-03T00:20:14.207Z,6.42
2019-03-03T00:22:42.657Z,7.92
2019-03-03T00:25:12.969Z,7.25
2019-03-03T00:27:44.867Z,7.50
2019-03-03T00:30:17.377Z,5.03
2019-03-03T00:32:45.853Z,9.05
2019-03-03T00:35:14.837Z,6.62
2019-03-03T00:38:01.488Z,7.53
2019-03-03T00:40:34.541Z,6.85
2019-03-03T00:43:04.628Z,7.87
2019-03-03T00:45:40.592Z,6.37
2019-03-03T00:48:10.676Z,7.78
2019-03-03T00:51:09.134Z,7.53
2019-03-03T00:53:55.715Z,4.58
2019-03-03T00:56:25.900Z,8.85
2019-03-03T00:59:05.260Z,10.48
2019-03-03T01:01:35.372Z,7.62
2019-03-03T01:09:57.780Z,5.62
2019-03-03T01:12:40.620Z,4.90
2019-03-03T01:15:30.684Z,4.45
2019-03-03T01:18:03.839Z,4.15
2019-03-03T01:20:33.958Z,5.92
2019-03-03T01:25:41.419Z,7.30
2019-03-03T01:28:29.248Z,4.40
2019-03-03T01:30:57.692Z,4.40
2019-03-03T01:33:28.175Z,3.60
2019-03-03T01:35:56.652Z,4.83
2019-03-03T01:38:25.264Z,4.87
2019-03-03T01:40:53.707Z,5.97
2019-03-03T01:43:22.180Z,5.12
2019-03-03T01:45:50.697Z,3.72
2019-03-03T01:48:19.216Z,5.70
2019-03-03T01:50:47.688Z,3.87
2019-03-03T01:53:16.129Z,7.80
2019-03-03T01:55:44.576Z,5.25
2019-03-03T01:58:13.515Z,5.55
2019-03-03T02:00:42.097Z,4.87
2019-03-03T02:03:10.540Z,3.33
2019-03-03T02:05:39.073Z,2.30
2019-03-03T02:08:08.071Z,4.25
2019-03-03T02:10:36.583Z,3.47
2019-03-03T02:13:05.124Z,2.62
2019-03-03T02:15:33.636Z,3.37
2019-03-03T02:18:02.164Z,1.77
2019-03-03T02:20:32.876Z,1.50
2019-03-03T02:23:01.383Z,2.50
2019-03-03T02:25:29.968Z,3.83
2019-03-03T02:27:58.436Z,2.30
2019-03-03T02:30:27.043Z,4.28
2019-03-03T02:32:55.491Z,2.95
2019-03-03T02:35:24.027Z,2.85
2019-03-03T02:37:52.466Z,1.67
2019-03-03T02:40:20.977Z,5.00
2019-03-03T02:42:49.456Z,3.25
2019-03-03T02:45:18.849Z,4.97
2019-03-03T02:47:47.365Z,3.20
2019-03-03T02:50:16.492Z,3.45
2019-03-03T02:52:45.016Z,6.10
2019-03-03T02:55:15.591Z,2.90
2019-03-03T02:57:44.147Z,5.30
2019-03-03T03:00:23.420Z,5.78
2019-03-03T03:05:47.581Z,3.67
2019-03-03T03:08:26.732Z,4.97
2019-03-03T03:10:56.837Z,3.85
2019-03-03T03:13:26.917Z,3.40
2019-03-03T03:15:57.004Z,5.10
2019-03-03T03:18:27.179Z,4.13
2019-03-03T03:20:57.270Z,4.00
2019-03-03T03:23:30.585Z,2.77
2019-03-03T03:26:03.387Z,5.20
2019-03-03T03:28:39.169Z,4.17
2019-03-03T03:31:21.330Z,3.80
2019-03-03T03:33:51.423Z,2.95
2019-03-03T03:36:21.586Z,2.53
2019-03-03T03:38:54.236Z,3.55
2019-03-03T03:41:24.304Z,4.35
2019-03-03T03:43:54.456Z,4.70
2019-03-03T03:46:27.069Z,2.57
2019-03-03T03:51:57.904Z,3.47
2019-03-03T03:57:28.717Z,4.00
2019-03-03T04:00:17.026Z,4.42
2019-03-03T04:02:52.833Z,3.80
2019-03-03T04:05:25.777Z,5.67
2019-03-03T04:08:04.939Z,5.62
2019-03-03T04:10:47.092Z,4.35
2019-03-03T04:13:20.000Z,3.20
2019-03-03T04:15:50.157Z,3.42
2019-03-03T04:18:29.525Z,5.50
2019-03-03T04:21:18.287Z,5.12
2019-03-03T04:24:00.351Z,5.08
2019-03-03T04:26:39.297Z,5.15
2019-03-03T04:29:21.467Z,3.22
2019-03-03T04:32:09.780Z,3.08
2019-03-03T04:34:39.889Z,4.00
2019-03-03T04:37:13.071Z,4.95
2019-03-03T04:39:46.210Z,3.33
2019-03-03T04:42:16.301Z,3.55
2019-03-03T04:44:49.139Z,5.90
2019-03-03T04:47:19.253Z,7.33
2019-03-03T04:50:04.420Z,7.03
2019-03-03T04:52:50.794Z,5.25
2019-03-03T04:55:37.593Z,7.03
2019-03-03T04:58:16.698Z,5.15
2019-03-03T05:00:47.339Z,6.53
2019-03-03T05:03:17.553Z,6.97
2019-03-03T05:08:26.103Z,5.47
2019-03-03T05:10:56.207Z,7.80
2019-03-03T05:13:26.283Z,9.13
2019-03-03T05:18:43.377Z,5.62
2019-03-03T05:21:11.826Z,6.15
2019-03-03T05:23:40.259Z,6.30
2019-03-03T05:26:08.805Z,5.15
2019-03-03T05:28:56.584Z,6.80
2019-03-03T05:31:25.051Z,4.47
2019-03-03T05:33:53.516Z,8.85
2019-03-03T05:36:21.956Z,7.37
2019-03-03T05:38:50.424Z,5.50
2019-03-03T05:41:24.819Z,6.97
2019-03-03T05:43:53.268Z,5.85
2019-03-03T05:46:21.732Z,6.05
2019-03-03T05:48:50.178Z,4.15
2019-03-03T05:51:18.631Z,2.98
2019-03-03T05:53:47.095Z,4.08
2019-03-03T05:56:24.780Z,5.58
2019-03-03T05:59:39.032Z,5.87
2019-03-03T06:02:07.481Z,3.65
2019-03-03T06:04:35.920Z,5.37
2019-03-03T06:07:04.452Z,4.75
2019-03-03T06:09:32.886Z,4.83
2019-03-03T06:12:01.396Z,2.37
2019-03-03T06:14:29.860Z,6.17
2019-03-03T06:16:58.293Z,5.47
2019-03-03T06:19:26.752Z,6.42
2019-03-03T06:21:55.231Z,3.80
2019-03-03T06:24:23.672Z,3.60
2019-03-03T06:26:52.111Z,4.10
2019-03-03T06:29:20.588Z,3.25
2019-03-03T06:31:49.168Z,3.47
2019-03-03T06:34:17.668Z,4.87
2019-03-03T06:36:46.133Z,4.62
2019-03-03T06:39:17.927Z,3.85
2019-03-03T06:41:46.428Z,3.08
2019-03-03T06:44:14.912Z,2.80
2019-03-03T06:46:43.414Z,1.98
2019-03-03T06:49:11.856Z,4.53
2019-03-03T06:51:40.320Z,3.80
2019-03-03T06:54:08.766Z,4.62
2019-03-03T06:56:37.213Z,2.10
2019-03-03T06:59:05.752Z,3.12
2019-03-03T07:01:34.187Z,2.67
2019-03-03T07:04:02.634Z,2.85
2019-03-03T07:06:31.183Z,1.47
2019-03-03T07:08:59.624Z,2.75
2019-03-03T07:11:28.151Z,3.27
2019-03-03T07:13:56.630Z,3.62
2019-03-03T07:16:26.446Z,4.12
2019-03-03T07:18:55.137Z,2.95
2019-03-03T07:21:23.623Z,3.02
2019-03-03T07:23:52.137Z,3.98
2019-03-03T07:26:20.572Z,4.53
2019-03-03T07:28:49.208Z,3.60
2019-03-03T07:31:17.764Z,4.53
2019-03-03T07:33:46.874Z,3.30
2019-03-03T07:36:15.339Z,4.47
2019-03-03T07:38:43.779Z,5.60
2019-03-03T07:41:12.220Z,5.00
2019-03-03T07:43:40.698Z,5.42
2019-03-03T07:46:09.162Z,4.55
2019-03-03T07:48:37.608Z,7.97
2019-03-03T07:51:06.144Z,6.97
2019-03-03T07:53:34.608Z,10.35
2019-03-03T07:56:03.102Z,9.63
2019-03-03T07:58:31.581Z,11.28
2019-03-03T08:01:00.030Z,10.88
2019-03-03T08:03:28.472Z,11.05
2019-03-03T08:05:56.938Z,9.68
2019-03-03T08:08:25.388Z,13.10
2019-03-03T08:10:54.506Z,13.90
2019-03-03T08:13:22.981Z,12.25
2019-03-03T08:15:51.427Z,14.40
2019-03-03T08:18:19.868Z,17.52
2019-03-03T08:20:48.333Z,7.40
2019-03-03T08:23:16.785Z,9.43
2019-03-03T08:25:45.234Z,8.33
2019-03-03T08:28:13.703Z,10.15
2019-03-03T08:30:42.149Z,7.78
2019-03-03T08:33:10.592Z,9.83
2019-03-03T08:35:39.064Z,8.23
2019-03-03T08:38:07.505Z,6.08
2019-03-03T08:40:35.949Z,10.95
2019-03-03T08:43:06.057Z,7.42
2019-03-03T08:46:04.460Z,6.77
2019-03-03T08:51:16.135Z,7.08
2019-03-03T08:53:48.972Z,8.15
2019-03-03T08:56:24.816Z,8.75
2019-03-03T08:58:54.894Z,9.83
2019-03-03T09:01:40.248Z,11.27
2019-03-03T09:04:10.337Z,10.23
2019-03-03T09:06:40.421Z,11.60
2019-03-03T09:11:51.894Z,6.90
2019-03-03T09:14:27.947Z,9.73
2019-03-03T09:17:14.600Z,9.48
2019-03-03T09:20:01.168Z,6.72
2019-03-03T09:22:31.276Z,5.10
2019-03-03T09:25:03.815Z,6.60
2019-03-03T09:27:50.327Z,5.42
2019-03-03T09:30:20.419Z,5.20
2019-03-03T09:32:53.516Z,6.45
2019-03-03T09:35:23.599Z,4.97
2019-03-03T09:38:11.311Z,3.93
2019-03-03T09:40:41.384Z,2.30
2019-03-03T09:43:11.470Z,3.67
2019-03-03T09:45:41.604Z,4.10
2019-03-03T09:48:23.967Z,2.10
2019-03-03T09:50:54.073Z,4.03
2019-03-03T09:53:24.153Z,1.53
2019-03-03T09:56:09.327Z,3.03
2019-03-03T09:58:55.956Z,3.80
2019-03-03T10:01:35.094Z,2.75
2019-03-03T10:04:05.244Z,4.97
2019-03-03T10:06:50.140Z,3.15
2019-03-03T10:09:21.202Z,2.87
2019-03-03T10:14:23.819Z,2.80
2019-03-03T10:16:53.903Z,4.15
2019-03-03T10:19:23.984Z,4.00
2019-03-03T10:21:54.089Z,4.23
2019-03-03T10:24:26.887Z,4.67
2019-03-03T10:27:13.491Z,3.62
2019-03-03T10:29:59.633Z,3.17
2019-03-03T10:32:38.628Z,3.30
2019-03-03T10:35:22.313Z,5.97
2019-03-03T10:37:58.596Z,4.83
2019-03-03T10:40:31.626Z,4.62
2019-03-03T10:43:01.729Z,3.92
2019-03-03T10:45:48.193Z,4.25
2019-03-03T10:51:25.232Z,3.55
2019-03-03T10:53:57.817Z,4.83
2019-03-03T10:56:30.920Z,3.05
2019-03-03T10:59:01.072Z,4.53
2019-03-03T11:04:28.627Z,3.62
2019-03-03T11:07:07.870Z,3.77
2019-03-03T11:09:40.452Z,4.60
2019-03-03T11:12:16.505Z,5.35
2019-03-03T11:15:03.129Z,2.87
2019-03-03T11:17:33.213Z,4.22
2019-03-03T11:20:22.706Z,2.77
2019-03-03T11:23:01.961Z,2.15
2019-03-03T11:25:32.132Z,5.30
2019-03-03T11:28:05.337Z,3.95
2019-03-03T11:30:47.884Z,5.15
2019-03-03T11:36:19.111Z,4.75
2019-03-03T11:38:49.210Z,4.47
2019-03-03T11:41:19.527Z,5.07
2019-03-03T11:43:52.356Z,2.70
2019-03-03T11:46:31.090Z,4.05
2019-03-03T11:49:07.181Z,4.08
2019-03-03T11:51:40.020Z,3.83
2019-03-03T11:54:29.472Z,6.42
2019-03-03T11:56:59.560Z,4.50
2019-03-03T11:59:41.889Z,6.03
2019-03-03T12:02:23.925Z,7.45
2019-03-03T12:04:57.013Z,7.90
2019-03-03T12:07:27.236Z,9.70
2019-03-03T12:10:12.376Z,7.42
2019-03-03T12:12:51.638Z,7.95
2019-03-03T12:15:30.637Z,9.90
2019-03-03T12:18:00.804Z,11.60
2019-03-03T12:20:33.791Z,16.97
2019-03-03T12:23:03.899Z,17.00
2019-03-03T12:25:36.569Z,17.87
2019-03-03T12:28:06.895Z,15.58
2019-03-03T12:30:53.635Z,15.50
2019-03-03T12:39:03.501Z,12.55
2019-03-03T12:41:33.609Z,19.02
2019-03-03T12:44:03.832Z,14.70
2019-03-03T12:46:33.921Z,21.82
2019-03-03T12:49:06.695Z,17.47
2019-03-03T12:51:36.787Z,14.93
2019-03-03T12:54:07.003Z,17.70
2019-03-03T12:59:27.393Z,11.95
2019-03-03T13:01:57.491Z,15.53
2019-03-03T13:04:27.571Z,15.93
2019-03-03T13:07:14.099Z,12.80
2019-03-03T13:12:45.002Z,13.43
2019-03-03T13:15:32.701Z,17.35
2019-03-03T13:18:11.781Z,13.98
2019-03-03T13:20:44.596Z,16.12
2019-03-03T13:23:20.503Z,18.62
2019-03-03T13:25:50.662Z,13.88
2019-03-03T13:33:54.485Z,15.18
2019-03-03T13:39:25.671Z,18.20
2019-03-03T13:42:10.448Z,22.55
2019-03-03T13:44:38.987Z,18.73
2019-03-03T13:47:07.513Z,18.45
2019-03-03T13:49:35.960Z,18.65
2019-03-03T13:52:04.987Z,26.23
2019-03-03T13:54:33.572Z,24.82
2019-03-03T13:57:02.088Z,25.10
2019-03-03T13:59:30.571Z,32.23
2019-03-03T14:01:59.080Z,28.80
2019-03-03T14:04:27.536Z,23.98
2019-03-03T14:06:56.016Z,22.73
2019-03-03T14:09:24.471Z,23.70
2019-03-03T14:11:52.999Z,31.15
2019-03-03T14:14:21.609Z,23.57
2019-03-03T14:16:50.052Z,24.00
2019-03-03T14:19:18.664Z,21.97
2019-03-03T14:21:47.223Z,22.20
2019-03-03T14:24:15.667Z,23.98
2019-03-03T14:26:44.115Z,25.68
2019-03-03T14:29:12.606Z,23.40
2019-03-03T14:32:00.397Z,25.43
2019-03-03T14:34:32.860Z,22.45
2019-03-03T14:37:01.136Z,20.23
2019-03-03T14:39:29.590Z,24.32
2019-03-03T14:41:58.048Z,20.75
2019-03-03T14:44:26.568Z,22.58
2019-03-03T14:46:55.014Z,19.37
2019-03-03T14:49:23.500Z,21.23
2019-03-03T14:51:52.091Z,24.95
2019-03-03T14:54:20.542Z,21.62
2019-03-03T14:56:49.157Z,20.80
2019-03-03T14:59:17.599Z,19.02
2019-03-03T15:01:46.071Z,21.27
2019-03-03T15:04:14.529Z,21.45
2019-03-03T15:06:42.979Z,22.20
2019-03-03T15:09:15.668Z,19.75
2019-03-03T15:11:44.336Z,21.50
2019-03-03T15:14:12.802Z,23.85
2019-03-03T15:16:41.381Z,21.80
2019-03-03T15:19:09.844Z,16.80
2019-03-03T15:21:38.357Z,19.55
2019-03-03T15:24:06.874Z,21.10
2019-03-03T15:26:35.408Z,17.65
2019-03-03T15:29:03.853Z,17.87
2019-03-03T15:31:37.645Z,19.07
2019-03-03T15:34:02.680Z,14.68
2019-03-03T15:36:38.321Z,15.43
2019-03-03T15:39:08.079Z,11.43
2019-03-03T15:41:37.187Z,11.63
2019-03-03T15:44:05.864Z,15.58
2019-03-03T15:46:34.352Z,11.00
2019-03-03T15:49:02.911Z,10.75
2019-03-03T15:51:31.352Z,10.43
2019-03-03T15:53:59.837Z,10.75
2019-03-03T15:56:28.287Z,10.58
2019-03-03T15:58:56.736Z,8.23
2019-03-03T16:01:25.544Z,11.08
2019-03-03T16:03:54.076Z,8.43
2019-03-03T16:06:22.518Z,8.75
2019-03-03T16:08:51.003Z,11.28
2019-03-03T16:11:19.454Z,8.05
2019-03-03T16:13:47.896Z,7.78
2019-03-03T16:16:16.442Z,6.97
2019-03-03T16:18:44.954Z,7.15
2019-03-03T16:21:13.400Z,6.53
2019-03-03T16:23:42.007Z,5.53
2019-03-03T16:26:10.459Z,7.20
2019-03-03T16:28:38.955Z,5.20
2019-03-03T16:31:07.495Z,6.45
2019-03-03T16:33:36.051Z,4.70
2019-03-03T16:36:04.737Z,8.78
2019-03-03T16:38:33.214Z,9.88
2019-03-03T16:41:01.662Z,10.50
2019-03-03T16:43:30.109Z,12.25
2019-03-03T16:45:58.584Z,11.85
2019-03-03T16:48:27.023Z,8.30
2019-03-03T16:50:55.472Z,10.25
2019-03-03T16:53:23.971Z,11.90
2019-03-03T16:55:52.489Z,12.28
2019-03-03T16:58:20.932Z,10.63
2019-03-03T17:00:49.411Z,9.50
2019-03-03T17:03:17.852Z,9.33
2019-03-03T17:05:46.690Z,12.63
2019-03-03T17:08:15.242Z,11.83
2019-03-03T17:10:43.686Z,8.78
2019-03-03T17:13:12.132Z,11.15
2019-03-03T17:15:40.978Z,12.65
2019-03-03T17:18:09.497Z,9.28
2019-03-03T17:20:38.013Z,9.05
2019-03-03T17:23:06.561Z,8.03
2019-03-03T17:25:35.007Z,11.08
2019-03-03T17:28:03.577Z,9.83
2019-03-03T17:30:32.116Z,14.85
2019-03-03T17:33:00.722Z,16.65
2019-03-03T17:35:29.165Z,17.32
2019-03-03T17:37:57.636Z,15.55
2019-03-03T17:40:27.448Z,16.60
2019-03-03T17:42:56.036Z,14.10
2019-03-03T17:45:25.212Z,11.68
2019-03-03T17:47:53.957Z,14.00
2019-03-03T17:50:46.031Z,14.13
2019-03-03T17:53:14.468Z,8.43
2019-03-03T17:55:42.914Z,10.63
2019-03-03T17:58:11.412Z,13.03
2019-03-03T18:00:44.368Z,11.60
2019-03-03T18:03:12.922Z,16.93
2019-03-03T18:05:41.403Z,13.80
2019-03-03T18:08:09.861Z,13.78
2019-03-03T18:10:38.311Z,9.88
2019-03-03T18:13:06.966Z,16.82
2019-03-03T18:15:35.411Z,14.05
2019-03-03T18:18:03.923Z,20.70
2019-03-03T18:20:32.403Z,19.30
2019-03-03T18:23:00.977Z,18.85
2019-03-03T18:25:29.556Z,15.70
2019-03-03T18:27:58.032Z,18.48
2019-03-03T18:30:28.696Z,19.27
2019-03-03T18:32:57.207Z,25.40
2019-03-03T18:35:25.950Z,23.25
2019-03-03T18:37:54.393Z,21.87
2019-03-03T18:40:46.469Z,22.22
2019-03-03T18:43:15.050Z,31.57
2019-03-03T18:45:43.495Z,24.55
2019-03-03T18:48:12.056Z,23.73
2019-03-03T18:50:40.495Z,24.82
2019-03-03T18:53:08.955Z,24.57
2019-03-03T18:55:37.580Z,18.82
2019-03-03T18:58:25.409Z,29.15
2019-03-03T19:00:54.007Z,22.02
2019-03-03T19:03:22.522Z,21.27
2019-03-03T19:05:55.757Z,19.95
2019-03-03T19:08:21.249Z,20.77
2019-03-03T19:10:49.777Z,16.50
2019-03-03T19:13:18.244Z,26.17
2019-03-03T19:16:06.296Z,22.87
2019-03-03T19:18:34.801Z,25.90
2019-03-03T19:21:03.244Z,22.27
2019-03-03T19:23:31.730Z,26.60
2019-03-03T19:26:00.180Z,27.50
2019-03-03T19:28:28.627Z,23.18
2019-03-03T19:30:57.143Z,30.75
2019-03-03T19:33:49.585Z,30.70
2019-03-03T19:36:18.363Z,29.23
2019-03-03T19:38:46.880Z,22.30
2019-03-03T19:41:15.589Z,22.90
2019-03-03T19:43:44.281Z,24.75
2019-03-03T19:46:12.825Z,29.90
2019-03-03T19:48:41.268Z,32.95
2019-03-03T19:51:10.241Z,26.23
2019-03-03T19:53:38.783Z,26.27
2019-03-03T19:56:07.414Z,28.07
2019-03-03T19:58:36.032Z,25.05
2019-03-03T20:01:05.696Z,21.68
2019-03-03T20:03:34.220Z,34.67
2019-03-03T20:06:02.829Z,30.20
2019-03-03T20:08:31.271Z,27.58
2019-03-03T20:10:59.715Z,21.93
2019-03-03T20:13:28.267Z,25.25
2019-03-03T20:15:56.717Z,21.95
2019-03-03T20:18:25.337Z,21.87
2019-03-03T20:20:54.075Z,25.55
2019-03-03T20:23:22.536Z,20.75
2019-03-03T20:25:51.043Z,16.80
2019-03-03T20:28:19.523Z,22.50
2019-03-03T20:30:48.708Z,25.08
2019-03-03T20:33:17.169Z,24.63
2019-03-03T20:35:45.644Z,22.45
2019-03-03T20:38:14.160Z,15.93
2019-03-03T20:40:42.604Z,20.97
2019-03-03T20:43:11.080Z,22.98
2019-03-03T20:45:39.670Z,21.40
2019-03-03T20:48:08.111Z,18.02
2019-03-03T20:50:36.768Z,19.80
2019-03-03T20:53:26.093Z,21.40
2019-03-03T20:55:54.692Z,20.97
2019-03-03T20:58:23.136Z,15.80
2019-03-03T21:00:51.579Z,21.17
2019-03-03T21:03:21.652Z,22.90
2019-03-03T21:05:50.383Z,19.62
2019-03-03T21:08:18.865Z,21.48
2019-03-03T21:10:47.404Z,16.75
2019-03-03T21:13:15.930Z,15.68
2019-03-03T21:15:44.388Z,21.35
2019-03-03T21:18:12.893Z,22.20
2019-03-03T21:20:41.408Z,17.23
2019-03-03T21:23:09.855Z,18.48
2019-03-03T21:25:38.327Z,19.82
2019-03-03T21:28:06.781Z,20.20
2019-03-03T21:30:35.223Z,19.02
2019-03-03T21:33:03.699Z,19.27
2019-03-03T21:35:32.147Z,19.80
2019-03-03T21:38:00.589Z,17.12
2019-03-03T21:40:29.144Z,18.57
2019-03-03T21:42:57.585Z,18.17
2019-03-03T21:45:27.466Z,17.82
2019-03-03T21:48:15.381Z,20.85
2019-03-03T21:50:43.879Z,23.80
2019-03-03T21:53:12.387Z,16.85
2019-03-03T21:55:40.869Z,13.58
2019-03-03T21:58:09.443Z,17.35
2019-03-03T22:00:58.779Z,17.35
2019-03-03T22:03:27.233Z,21.42
2019-03-03T22:05:55.674Z,18.80
2019-03-03T22:08:24.145Z,20.80
2019-03-03T22:10:52.600Z,15.32
2019-03-03T22:13:21.048Z,16.65
2019-03-03T22:16:08.849Z,20.17
2019-03-03T22:18:37.388Z,11.97
2019-03-03T22:21:05.871Z,16.90
2019-03-03T22:23:34.344Z,17.70
2019-03-03T22:26:02.796Z,17.50
2019-03-03T22:28:31.233Z,20.35
2019-03-03T22:30:59.796Z,18.27
2019-03-03T22:33:28.244Z,19.85
2019-03-03T22:35:56.677Z,18.10
2019-03-03T22:38:25.267Z,18.65
2019-03-03T22:40:53.724Z,20.65
2019-03-03T22:43:22.174Z,14.13
2019-03-03T22:45:50.717Z,16.90
2019-03-03T22:48:19.157Z,20.48
2019-03-03T22:50:47.606Z,17.48
2019-03-03T22:53:16.141Z,15.10
2019-03-03T22:55:44.586Z,17.05
2019-03-03T22:58:13.026Z,18.80
2019-03-03T23:00:54.922Z,21.48
2019-03-03T23:03:26.435Z,19.10
2019-03-03T23:06:17.667Z,19.02
2019-03-03T23:11:18.424Z,16.95
2019-03-03T23:13:50.057Z,14.53
2019-03-03T23:16:36.704Z,15.72
2019-03-03T23:19:14.016Z,19.85
2019-03-03T23:21:48.310Z,17.30
2019-03-03T23:24:40.753Z,16.75
2019-03-03T23:27:09.211Z,15.63
2019-03-03T23:29:37.666Z,16.65
2019-03-03T23:32:06.188Z,17.80
2019-03-03T23:34:34.636Z,18.23
2019-03-03T23:37:03.093Z,25.00
2019-03-03T23:39:31.659Z,21.52
2019-03-03T23:42:37.712Z,26.17
2019-03-03T23:45:27.096Z,19.17
2019-03-03T23:47:55.808Z,14.60
2019-03-03T23:50:24.263Z,14.87
2019-03-03T23:52:52.727Z,19.48
2019-03-03T23:55:21.180Z,17.75
2019-03-03T23:57:49.623Z,22.93
